Главная страница
METAR-TAF:

METAR-TAF

Аэропорты :

Каяани, Финляндия

Каяни

широта: 64-17N, долгота: 027-41E, высота над уровнем моря: 143 м

Текущие метеонаблюдения

Эта сводка был подготовлена 35 минут назад, в 09:50 UTC
Ветер 13 Узел от западный-юго-западный
Температура 1°C
Влажность 55%
Давление 1003 hPa
Видимость 10 км и более
Нет облачности ниже 1500 м, и нет кучево-дождевой облачности

METAR: EFKI 230950Z AUTO 25013KT CAVOK 01/M07 Q1003

Время: 12:25 (10:25 UTC)

Прогноз

Эта сводка был подготовлена 1 час и 55 минут назад, в 08:30 UTC
Прогноз действительный с 23-го 09 UTC до 23-го 18 UTC
Ветер 15 Узел от западный
Видимость 10 км и более
небольшая облачность на высоте 2500 фута
Вероятность 40% :
временами
С 23-го 09 UTC до 23-го 18 UTC
Ветер 15 Узел от западный с порывами до 25 Узел

TAF: EFKI 230830Z 2309/2318 26015KT 9999 FEW025 PROB40 TEMPO 2309/2318 27015G25KT

Метеонаблюдения и прогнозы для более 4000 аэропортов (сводки METAR и TAF).

Имеющиеся станции представлены на карте желтыми и красными точками.

Чтобы увидеть название станции, наведите на нее мышь.

Затем щелкните, чтобы увидеть метеонаблюдения и метеопрогнозы.

Управление картой: чтобы увеличить масштаб, щелкните зеленые кнопки с черным крестиком; чтобы уменьшить масштаб, щелкните зеленую кнопку с тире; для просмотра соседних карт щелкайте зеленые стрелки.


METAR-TAF: